Time;durP1;ratioP1;P1;durP2;ratioP2;P2;SDS_P1;SDS_P2;PMS_P1;PMS_P2;Temp;Humidity;BMP_temperature;BMP_pressure;BME280_temperature;BME280_humidity;BME280_pressure;Samples;Min_cycle;Max_cycle;Signal;HPM_P1;HPM_P2
2021/05/11 00:02:12;;;;;;;5.75;3.22;;;;;;;;;;3617005;39;20038;-65
2021/05/11 00:04:37;;;;;;;4.75;3.30;;;;;;;;;;3620066;39;20045;-66
2021/05/11 00:07:04;;;;;;;4.50;3.00;;;;;;;;;;3618861;39;20124;-66
2021/05/11 00:09:29;;;;;;;4.57;3.95;;;;;;;;;;3620202;39;20039;-66
2021/05/11 00:11:54;;;;;;;5.30;2.53;;;;;;;;;;3619438;39;20544;-66
2021/05/11 00:14:20;;;;;;;5.07;2.80;;;;;;;;;;3618179;39;20042;-65
2021/05/11 00:16:45;;;;;;;3.97;2.65;;;;;;;;;;3619902;39;20030;-66
2021/05/11 00:19:13;;;;;;;4.72;2.83;;;;;;;;;;3618987;39;20047;-68
2021/05/11 00:21:39;;;;;;;4.88;2.95;;;;;;;;;;3619010;39;20034;-69
2021/05/11 00:24:04;;;;;;;4.30;3.03;;;;;;;;;;3619257;39;20034;-70
2021/05/11 00:26:30;;;;;;;4.25;2.95;;;;;;;;;;3618933;39;20043;-69
2021/05/11 00:28:55;;;;;;;4.35;3.30;;;;;;;;;;3618055;39;20031;-69
2021/05/11 00:31:21;;;;;;;7.50;3.05;;;;;;;;;;3616775;39;20032;-69
2021/05/11 00:33:46;;;;;;;4.32;3.20;;;;;;;;;;3606964;39;20055;-69
2021/05/11 00:36:12;;;;;;;5.03;2.95;;;;;;;;;;3607400;39;20039;-68
2021/05/11 00:38:37;;;;;;;5.18;3.00;;;;;;;;;;3615653;39;20048;-68
2021/05/11 00:41:03;;;;;;;4.32;3.13;;;;;;;;;;3615904;39;20039;-68
2021/05/11 00:43:28;;;;;;;6.05;3.10;;;;;;;;;;3616530;39;20124;-68
2021/05/11 00:45:53;;;;;;;4.28;3.08;;;;;;;;;;3619172;39;20127;-68
2021/05/11 00:48:19;;;;;;;5.88;3.78;;;;;;;;;;3618384;39;20039;-69
2021/05/11 00:50:44;;;;;;;5.88;3.78;;;;;;;;;;3617723;39;20036;-70
2021/05/11 00:53:10;;;;;;;6.15;3.70;;;;;;;;;;3605703;39;20032;-71
2021/05/11 00:55:35;;;;;;;4.88;4.38;;;;;;;;;;3615585;39;20058;-71
2021/05/11 00:58:01;;;;;;;5.28;3.70;;;;;;;;;;3619143;39;20043;-72
2021/05/11 01:00:27;;;;;;;4.68;3.58;;;;;;;;;;3604733;39;20356;-71
2021/05/11 01:02:52;;;;;;;5.55;4.00;;;;;;;;;;3617183;39;20043;-70
2021/05/11 01:05:18;;;;;;;8.27;4.50;;;;;;;;;;3616751;39;20296;-68
2021/05/11 01:07:47;;;;;;;5.88;4.28;;;;;;;;;;3618132;39;20042;-68
2021/05/11 01:10:13;;;;;;;6.28;4.97;;;;;;;;;;3618227;39;20043;-68
2021/05/11 01:12:38;;;;;;;6.88;4.60;;;;;;;;;;3617403;39;20377;-68
2021/05/11 01:15:05;;;;;;;5.55;4.47;;;;;;;;;;3617669;39;20266;-67
2021/05/11 01:17:34;;;;;;;5.82;4.40;;;;;;;;;;3608222;39;20047;-68
2021/05/11 01:20:03;;;;;;;10.27;4.60;;;;;;;;;;3617053;39;20035;-68
2021/05/11 01:22:38;;;;;;;5.93;5.32;;;;;;;;;;3617881;39;20042;-67
2021/05/11 01:25:12;;;;;;;8.10;5.28;;;;;;;;;;3617461;39;20141;-68
2021/05/11 02:24:05;;;;;;;9.00;7.65;;;;;;;;;;3616891;39;20363;-64
2021/05/11 02:26:30;;;;;;;11.23;7.97;;;;;;;;;;3618278;39;20039;-64
2021/05/11 02:28:56;;;;;;;10.57;9.18;;;;;;;;;;3608012;39;20574;-64
2021/05/11 02:31:21;;;;;;;9.27;8.27;;;;;;;;;;3607753;39;20031;-65
2021/05/11 02:33:46;;;;;;;8.70;7.80;;;;;;;;;;3616133;39;20278;-65
2021/05/11 02:36:12;;;;;;;10.18;7.03;;;;;;;;;;3617044;39;20030;-64
2021/05/11 02:38:37;;;;;;;8.13;7.30;;;;;;;;;;3612901;39;20040;-65
2021/05/11 02:41:03;;;;;;;9.63;8.63;;;;;;;;;;3617385;39;20035;-65
2021/05/11 02:43:37;;;;;;;10.23;9.20;;;;;;;;;;3617222;39;20058;-65
2021/05/11 02:46:03;;;;;;;9.60;8.60;;;;;;;;;;3616544;39;20395;-65
2021/05/11 02:48:28;;;;;;;8.90;8.00;;;;;;;;;;3607273;39;20020;-65
2021/05/11 02:50:53;;;;;;;9.52;8.07;;;;;;;;;;3607939;39;20047;-65
2021/05/11 02:53:19;;;;;;;10.13;9.00;;;;;;;;;;3616923;39;20038;-65
2021/05/11 02:55:44;;;;;;;10.18;8.77;;;;;;;;;;3616901;39;20046;-65
2021/05/11 02:58:13;;;;;;;11.40;9.02;;;;;;;;;;3617559;39;20307;-65
2021/05/11 03:00:39;;;;;;;10.15;8.73;;;;;;;;;;3617136;39;20042;-64
2021/05/11 03:03:05;;;;;;;9.75;8.55;;;;;;;;;;3617434;39;20088;-65
2021/05/11 03:05:31;;;;;;;9.98;8.98;;;;;;;;;;3615692;39;20064;-65
2021/05/11 03:07:56;;;;;;;16.20;9.18;;;;;;;;;;3617225;39;20046;-64
2021/05/11 03:10:21;;;;;;;8.82;7.93;;;;;;;;;;3617143;39;20037;-64
2021/05/11 03:12:47;;;;;;;8.50;7.60;;;;;;;;;;3617263;39;20063;-64
2021/05/11 03:15:13;;;;;;;8.88;7.72;;;;;;;;;;3616029;39;20030;-65
2021/05/11 03:17:39;;;;;;;10.82;8.90;;;;;;;;;;3617409;39;20072;-64
2021/05/11 03:20:06;;;;;;;10.05;8.45;;;;;;;;;;3607857;39;20295;-65
2021/05/11 03:22:32;;;;;;;12.07;8.85;;;;;;;;;;3616597;39;20083;-65
2021/05/11 03:24:57;;;;;;;11.18;8.25;;;;;;;;;;3617089;39;20427;-64
2021/05/11 03:27:23;;;;;;;10.38;9.38;;;;;;;;;;3616723;39;20028;-64
2021/05/11 03:29:49;;;;;;;9.77;8.63;;;;;;;;;;3616195;39;20271;-64
2021/05/11 03:32:14;;;;;;;12.90;9.18;;;;;;;;;;3616212;39;20039;-64
2021/05/11 03:34:39;;;;;;;10.98;8.15;;;;;;;;;;3616911;39;20035;-64
2021/05/11 03:37:06;;;;;;;9.13;8.23;;;;;;;;;;3616783;39;20031;-64
2021/05/11 03:39:36;;;;;;;11.05;9.57;;;;;;;;;;3617071;39;20033;-64
2021/05/11 03:42:06;;;;;;;;;;;;;;;;;;3617097;39;20362;-64
2021/05/11 03:44:34;;;;;;;11.98;9.40;;;;;;;;;;3617336;39;19930;-64
2021/05/11 03:46:59;;;;;;;11.52;10.32;;;;;;;;;;3607182;39;20039;-64
2021/05/11 03:49:24;;;;;;;13.20;10.93;;;;;;;;;;3616295;39;20038;-64
2021/05/11 03:51:50;;;;;;;12.88;9.88;;;;;;;;;;3617101;39;20136;-64
2021/05/11 03:54:15;;;;;;;13.00;10.65;;;;;;;;;;3617124;39;20079;-64
2021/05/11 03:56:41;;;;;;;13.90;10.88;;;;;;;;;;3615790;39;20043;-64
2021/05/11 03:59:06;;;;;;;12.02;10.60;;;;;;;;;;3616928;39;20035;-64
2021/05/11 04:01:33;;;;;;;10.98;9.85;;;;;;;;;;3616499;39;20042;-64
2021/05/11 04:03:59;;;;;;;14.65;10.05;;;;;;;;;;3616406;39;20043;-64
2021/05/11 04:06:24;;;;;;;12.63;10.38;;;;;;;;;;3616304;39;20049;-64
2021/05/11 04:16:23;;;;;;;14.00;10.57;;;;;;;;;;3616593;39;20032;-64
2021/05/11 04:18:49;;;;;;;11.65;10.45;;;;;;;;;;3616270;39;20074;-64
2021/05/11 04:21:16;;;;;;;11.80;10.57;;;;;;;;;;3616445;39;20043;-64
2021/05/11 04:23:42;;;;;;;14.65;10.73;;;;;;;;;;3616533;39;20067;-64
2021/05/11 04:26:09;;;;;;;11.68;10.48;;;;;;;;;;3616481;39;20035;-63
2021/05/11 04:28:35;;;;;;;12.80;11.50;;;;;;;;;;3616569;39;20035;-64
2021/05/11 04:31:00;;;;;;;14.50;13.10;;;;;;;;;;3616723;39;20035;-64
2021/05/11 04:33:26;;;;;;;13.93;12.52;;;;;;;;;;3616275;39;20588;-64
2021/05/11 04:35:53;;;;;;;15.10;11.80;;;;;;;;;;3616647;39;20071;-64
2021/05/11 04:38:18;;;;;;;14.45;12.98;;;;;;;;;;3616403;39;20068;-64
2021/05/11 04:40:44;;;;;;;15.77;13.07;;;;;;;;;;3618382;39;20039;-64
2021/05/11 04:43:09;;;;;;;17.08;13.63;;;;;;;;;;3618421;39;20027;-64
2021/05/11 04:45:35;;;;;;;13.88;12.50;;;;;;;;;;3617418;39;20043;-64
2021/05/11 04:48:01;;;;;;;15.85;12.43;;;;;;;;;;3616843;39;20039;-64
2021/05/11 04:50:27;;;;;;;14.35;12.00;;;;;;;;;;3617263;39;20027;-63
2021/05/11 04:52:54;;;;;;;14.15;12.43;;;;;;;;;;3617993;39;20032;-63
2021/05/11 04:55:20;;;;;;;13.18;11.98;;;;;;;;;;3616977;39;20096;-63
2021/05/11 04:57:45;;;;;;;14.05;12.68;;;;;;;;;;3618283;39;20072;-63
2021/05/11 05:00:12;;;;;;;16.77;14.95;;;;;;;;;;3617815;39;20406;-63
2021/05/11 05:02:43;;;;;;;15.60;14.05;;;;;;;;;;3617852;39;20043;-63
2021/05/11 05:05:09;;;;;;;19.00;15.10;;;;;;;;;;3615826;39;20047;-63
2021/05/11 05:07:35;;;;;;;16.27;13.88;;;;;;;;;;3617540;39;20046;-63
2021/05/11 05:10:01;;;;;;;14.52;13.13;;;;;;;;;;3617862;39;20039;-63
2021/05/11 05:12:26;;;;;;;14.35;12.95;;;;;;;;;;3616354;39;20045;-63
2021/05/11 05:14:51;;;;;;;14.20;11.90;;;;;;;;;;3617956;39;20031;-63
2021/05/11 05:17:17;;;;;;;13.00;11.60;;;;;;;;;;3617696;39;20027;-63
2021/05/11 05:19:42;;;;;;;13.80;12.02;;;;;;;;;;3617116;39;20050;-63
2021/05/11 05:22:08;;;;;;;13.60;11.02;;;;;;;;;;3617733;39;20128;-63
2021/05/11 05:24:42;;;;;;;12.30;11.00;;;;;;;;;;3617936;39;20043;-63
2021/05/11 05:27:15;;;;;;;14.40;10.13;;;;;;;;;;3617084;39;20115;-63
2021/05/11 05:29:41;;;;;;;11.90;9.07;;;;;;;;;;3617229;39;20034;-63
2021/05/11 05:32:06;;;;;;;10.20;9.10;;;;;;;;;;3617930;39;20270;-63
2021/05/11 05:34:32;;;;;;;10.05;8.85;;;;;;;;;;3617521;39;20035;-63
2021/05/11 05:36:58;;;;;;;10.00;8.48;;;;;;;;;;3617109;39;20059;-63
2021/05/11 05:39:29;;;;;;;10.75;7.53;;;;;;;;;;3617547;39;20035;-63
2021/05/11 05:41:55;;;;;;;12.25;7.53;;;;;;;;;;3617686;39;20033;-63
2021/05/11 05:44:20;;;;;;;7.60;6.55;;;;;;;;;;3615778;39;20027;-62
2021/05/11 05:46:46;;;;;;;7.05;5.88;;;;;;;;;;3616667;39;20475;-62
2021/05/11 05:49:11;;;;;;;7.95;6.05;;;;;;;;;;3617541;39;20027;-62
2021/05/11 05:51:36;;;;;;;8.43;5.72;;;;;;;;;;3617234;39;20151;-62
2021/05/11 05:54:02;;;;;;;6.13;4.93;;;;;;;;;;3616525;39;20463;-62
2021/05/11 05:56:28;;;;;;;5.72;5.13;;;;;;;;;;3617493;39;20047;-62
2021/05/11 05:58:53;;;;;;;6.45;4.95;;;;;;;;;;3617661;39;20050;-62
2021/05/11 06:01:26;;;;;;;6.22;4.80;;;;;;;;;;3616769;39;20043;-62
2021/05/11 06:04:13;;;;;;;6.72;5.20;;;;;;;;;;3617428;39;20043;-62
2021/05/11 06:06:42;;;;;;;7.82;4.97;;;;;;;;;;3617152;39;20043;-62
2021/05/11 06:09:13;;;;;;;5.85;4.10;;;;;;;;;;3616908;39;20502;-62
2021/05/11 06:19:14;;;;;;;5.45;3.97;;;;;;;;;;3616525;39;20457;-62
2021/05/11 06:21:40;;;;;;;4.35;3.42;;;;;;;;;;3616084;39;20128;-63
2021/05/11 06:24:06;;;;;;;5.32;3.92;;;;;;;;;;3612506;39;20043;-62
2021/05/11 06:26:32;;;;;;;4.85;3.80;;;;;;;;;;3614615;39;20057;-63
2021/05/11 06:29:00;;;;;;;5.00;3.50;;;;;;;;;;3606259;39;20038;-63
2021/05/11 06:31:25;;;;;;;4.85;3.22;;;;;;;;;;3614654;39;20031;-63
2021/05/11 06:33:51;;;;;;;5.50;3.45;;;;;;;;;;3612175;39;20431;-63
2021/05/11 06:36:16;;;;;;;6.75;3.95;;;;;;;;;;3615541;39;20363;-62
2021/05/11 06:38:42;;;;;;;5.60;3.28;;;;;;;;;;3615722;39;20047;-63
2021/05/11 06:41:08;;;;;;;6.70;3.35;;;;;;;;;;3606135;39;20037;-63
2021/05/11 06:43:35;;;;;;;4.22;3.50;;;;;;;;;;3615508;39;20063;-63
2021/05/11 06:48:42;;;;;;;4.80;3.47;;;;;;;;;;3615537;39;20776;-62
2021/05/11 06:53:38;;;;;;;5.68;4.38;;;;;;;;;;3614827;39;20051;-63
2021/05/11 06:56:05;;;;;;;5.75;4.07;;;;;;;;;;3615714;39;20035;-63
2021/05/11 06:58:30;;;;;;;8.52;4.95;;;;;;;;;;3614923;39;20047;-63
2021/05/11 07:00:56;;;;;;;7.55;4.63;;;;;;;;;;3615648;39;20064;-63
2021/05/11 07:03:21;;;;;;;10.35;4.93;;;;;;;;;;3615408;39;20043;-63
2021/05/11 07:05:49;;;;;;;7.93;4.95;;;;;;;;;;3615305;39;20136;-62
2021/05/11 07:08:23;;;;;;;5.95;4.70;;;;;;;;;;3613880;39;20039;-63
2021/05/11 07:10:52;;;;;;;6.80;4.68;;;;;;;;;;3604668;39;20041;-63
2021/05/11 07:13:18;;;;;;;5.78;4.70;;;;;;;;;;3614740;39;20042;-63
2021/05/11 07:15:44;;;;;;;6.63;4.35;;;;;;;;;;3614705;39;20063;-63
2021/05/11 07:18:18;;;;;;;5.72;4.65;;;;;;;;;;3615478;39;20075;-63
2021/05/11 07:20:47;;;;;;;5.57;4.75;;;;;;;;;;3615354;39;20035;-63
2021/05/11 07:23:20;;;;;;;7.25;4.45;;;;;;;;;;3615220;39;20035;-63
2021/05/11 07:31:01;;;;;;;5.63;4.20;;;;;;;;;;3614445;39;20059;-63
2021/05/11 07:33:31;;;;;;;5.95;4.35;;;;;;;;;;3614193;39;20024;-63
2021/05/11 07:35:57;;;;;;;4.50;4.05;;;;;;;;;;3612685;39;20811;-64
2021/05/11 07:38:25;;;;;;;6.20;4.32;;;;;;;;;;3614412;39;20031;-64
2021/05/11 07:40:52;;;;;;;4.97;3.90;;;;;;;;;;3614727;39;20055;-64
2021/05/11 07:43:20;;;;;;;6.07;3.30;;;;;;;;;;3613999;39;20027;-63
2021/05/11 08:17:19;;;;;;;5.03;4.07;;;;;;;;;;3613058;39;20699;-63
2021/05/11 08:27:45;;;;;;;5.15;3.30;;;;;;;;;;3613667;39;20043;-63
2021/05/11 08:30:11;;;;;;;4.43;3.05;;;;;;;;;;3613077;39;20050;-63
2021/05/11 08:32:37;;;;;;;4.93;3.42;;;;;;;;;;3614165;39;20263;-63
2021/05/11 08:35:03;;;;;;;5.60;3.45;;;;;;;;;;3612912;39;20072;-63
2021/05/11 08:37:28;;;;;;;4.53;3.40;;;;;;;;;;3612117;39;20042;-63
2021/05/11 08:39:53;;;;;;;4.25;2.97;;;;;;;;;;3614110;39;20035;-62
2021/05/11 08:42:19;;;;;;;4.35;3.15;;;;;;;;;;3614769;39;20034;-62
2021/05/11 08:44:44;;;;;;;4.45;2.92;;;;;;;;;;3615170;39;20031;-62
2021/05/11 08:47:10;;;;;;;4.53;3.15;;;;;;;;;;3613266;39;20055;-62
2021/05/11 08:49:38;;;;;;;4.10;2.75;;;;;;;;;;3614337;39;20482;-63
2021/05/11 09:06:05;;;;;;;3.78;2.40;;;;;;;;;;3615704;39;20035;-62
2021/05/11 09:25:39;;;;;;;2.70;1.60;;;;;;;;;;3617139;39;20050;-63
2021/05/11 09:31:24;;;;;;;3.03;1.60;;;;;;;;;;3620010;39;20274;-63
2021/05/11 09:45:21;;;;;;;2.80;1.65;;;;;;;;;;3588677;39;20402;-63
2021/05/11 10:48:25;;;;;;;3.27;1.57;;;;;;;;;;3617658;39;20138;-63
2021/05/11 10:50:58;;;;;;;3.47;2.13;;;;;;;;;;3617039;39;20292;-62
2021/05/11 10:53:35;;;;;;;2.88;1.40;;;;;;;;;;3619416;39;20151;-62
2021/05/11 11:01:51;;;;;;;3.30;1.70;;;;;;;;;;3618858;39;20051;-63
2021/05/11 11:04:21;;;;;;;2.15;1.30;;;;;;;;;;3619442;39;20038;-63
2021/05/11 11:06:59;;;;;;;2.65;1.35;;;;;;;;;;3616532;39;20490;-62
2021/05/11 11:09:28;;;;;;;3.75;1.23;;;;;;;;;;3615512;39;20507;-62
2021/05/11 11:11:54;;;;;;;2.42;1.27;;;;;;;;;;3607746;39;20030;-62
2021/05/11 11:14:20;;;;;;;2.25;1.13;;;;;;;;;;3616613;39;20023;-62
2021/05/11 11:16:46;;;;;;;1.83;1.00;;;;;;;;;;3617469;39;20298;-63
2021/05/11 11:19:13;;;;;;;2.50;1.33;;;;;;;;;;3616699;39;20062;-63
2021/05/11 11:24:27;;;;;;;4.35;1.50;;;;;;;;;;3617891;39;20047;-62
2021/05/11 11:26:54;;;;;;;2.88;1.35;;;;;;;;;;3616133;39;20043;-63
2021/05/11 11:29:22;;;;;;;2.78;1.25;;;;;;;;;;3616911;39;20062;-63
2021/05/11 11:31:49;;;;;;;3.20;1.23;;;;;;;;;;3616275;39;20023;-62
2021/05/11 11:34:21;;;;;;;2.35;1.08;;;;;;;;;;3617080;39;20123;-63
2021/05/11 11:36:55;;;;;;;8.63;1.35;;;;;;;;;;3616225;39;20023;-63
2021/05/11 11:39:48;;;;;;;2.03;1.10;;;;;;;;;;3614220;39;20397;-63
2021/05/11 11:42:21;;;;;;;2.08;1.10;;;;;;;;;;3614655;39;20045;-63
2021/05/11 11:44:49;;;;;;;2.80;1.10;;;;;;;;;;3616799;39;20039;-63
2021/05/11 11:47:14;;;;;;;2.45;1.40;;;;;;;;;;3614560;39;20032;-63
2021/05/11 11:49:47;;;;;;;1.88;1.00;;;;;;;;;;3619267;39;22532;-63
2021/05/11 12:00:11;;;;;;;1.52;0.93;;;;;;;;;;3619498;39;20031;-63
2021/05/11 12:02:37;;;;;;;3.83;1.25;;;;;;;;;;3615752;39;20119;-63
2021/05/11 12:05:13;;;;;;;3.03;1.20;;;;;;;;;;3613618;39;20442;-63
2021/05/11 12:07:54;;;;;;;2.15;1.20;;;;;;;;;;3617656;39;20633;-64
2021/05/11 12:10:19;;;;;;;3.00;1.50;;;;;;;;;;3616345;39;20035;-63
2021/05/11 12:12:45;;;;;;;4.65;1.20;;;;;;;;;;3617677;39;20064;-63
2021/05/11 12:15:13;;;;;;;2.55;1.15;;;;;;;;;;3617051;39;20366;-63
2021/05/11 12:17:40;;;;;;;5.30;1.70;;;;;;;;;;3616094;39;20082;-63
2021/05/11 12:20:24;;;;;;;3.00;1.40;;;;;;;;;;3617249;39;20023;-63
2021/05/11 12:23:02;;;;;;;4.35;1.20;;;;;;;;;;3616746;39;20090;-63
2021/05/11 12:25:28;;;;;;;2.20;1.20;;;;;;;;;;3617444;39;20035;-63
2021/05/11 12:27:53;;;;;;;3.00;1.50;;;;;;;;;;3617741;39;20539;-63
2021/05/11 12:30:19;;;;;;;2.40;1.35;;;;;;;;;;3615460;39;20369;-64
2021/05/11 12:32:44;;;;;;;3.28;1.70;;;;;;;;;;3617410;39;20047;-64
2021/05/11 12:35:11;;;;;;;4.68;2.25;;;;;;;;;;3618935;39;20381;-65
2021/05/11 12:37:45;;;;;;;6.53;1.65;;;;;;;;;;3616967;39;20057;-64
2021/05/11 12:40:23;;;;;;;5.18;2.10;;;;;;;;;;3615989;39;20399;-63
2021/05/11 12:42:49;;;;;;;5.72;2.08;;;;;;;;;;3613030;39;20036;-64
2021/05/11 12:45:15;;;;;;;4.38;1.88;;;;;;;;;;3616328;39;20040;-63
2021/05/11 12:48:00;;;;;;;6.47;1.65;;;;;;;;;;3616162;39;20015;-65
2021/05/11 12:50:30;;;;;;;4.57;1.70;;;;;;;;;;3615785;39;20386;-65
2021/05/11 12:53:01;;;;;;;3.55;1.30;;;;;;;;;;3610550;39;20058;-64
2021/05/11 12:58:35;;;;;;;2.42;1.15;;;;;;;;;;3616220;39;19967;-64
2021/05/11 13:01:06;;;;;;;3.65;1.75;;;;;;;;;;3615051;39;20409;-64
2021/05/11 13:03:43;;;;;;;5.90;1.60;;;;;;;;;;3616578;39;20063;-65
2021/05/11 13:15:05;;;;;;;2.70;1.40;;;;;;;;;;3617956;39;20046;-64
2021/05/11 13:20:54;;;;;;;2.42;1.27;;;;;;;;;;3616547;39;20398;-64
2021/05/11 13:25:34;;;;;;;3.00;1.30;;;;;;;;;;3618117;39;20189;-64
2021/05/11 13:30:41;;;;;;;6.97;1.20;;;;;;;;;;3617109;39;20043;-64
2021/05/11 13:35:33;;;;;;;3.08;1.25;;;;;;;;;;3617156;39;20081;-64
2021/05/11 13:37:58;;;;;;;3.05;1.40;;;;;;;;;;3607130;39;20370;-64
2021/05/11 13:40:24;;;;;;;4.13;1.33;;;;;;;;;;3616215;39;20035;-64
2021/05/11 13:42:51;;;;;;;1.92;1.15;;;;;;;;;;3607073;39;20066;-64
2021/05/11 13:45:17;;;;;;;3.47;1.20;;;;;;;;;;3590148;39;20036;-64
2021/05/11 13:47:55;;;;;;;3.22;1.50;;;;;;;;;;3617187;39;20039;-64
2021/05/11 13:50:21;;;;;;;3.30;1.35;;;;;;;;;;3616706;39;20561;-64
2021/05/11 13:52:46;;;;;;;3.47;1.25;;;;;;;;;;3607090;39;20067;-63
2021/05/11 13:55:20;;;;;;;2.38;1.30;;;;;;;;;;3616990;39;20160;-64
2021/05/11 14:03:14;;;;;;;2.88;1.30;;;;;;;;;;3617288;39;20062;-64
2021/05/11 14:05:39;;;;;;;3.13;1.05;;;;;;;;;;3617881;39;20302;-65
2021/05/11 14:08:04;;;;;;;3.30;1.65;;;;;;;;;;3617422;39;20466;-64
2021/05/11 14:10:30;;;;;;;4.65;1.25;;;;;;;;;;3616990;39;20375;-65
2021/05/11 14:12:56;;;;;;;1.48;0.90;;;;;;;;;;3616907;39;20050;-64
2021/05/11 14:15:21;;;;;;;1.88;0.90;;;;;;;;;;3617446;39;20042;-64
2021/05/11 14:17:46;;;;;;;2.22;0.80;;;;;;;;;;3617309;39;20032;-64
2021/05/11 14:20:13;;;;;;;1.48;0.80;;;;;;;;;;3617468;39;20027;-64
2021/05/11 14:22:38;;;;;;;1.75;1.00;;;;;;;;;;3616986;39;20047;-65
2021/05/11 14:25:04;;;;;;;1.90;0.80;;;;;;;;;;3617541;39;20033;-65
2021/05/11 14:27:30;;;;;;;9.13;0.98;;;;;;;;;;3617415;39;20332;-65
2021/05/11 14:29:55;;;;;;;3.35;1.40;;;;;;;;;;3607368;39;20039;-65
2021/05/11 14:32:21;;;;;;;5.72;3.63;;;;;;;;;;3617183;39;20053;-65
2021/05/11 14:34:47;;;;;;;8.48;6.15;;;;;;;;;;3617967;39;20319;-65
2021/05/11 14:37:12;;;;;;;3.00;1.42;;;;;;;;;;3608213;39;20031;-65
2021/05/11 14:39:38;;;;;;;1.35;0.70;;;;;;;;;;3615998;39;20439;-65
2021/05/11 14:42:03;;;;;;;3.90;0.77;;;;;;;;;;3617405;39;20450;-66
2021/05/11 14:44:29;;;;;;;0.63;0.50;;;;;;;;;;3617436;39;20035;-66
2021/05/11 14:46:57;;;;;;;2.13;0.57;;;;;;;;;;3617412;39;20031;-65
2021/05/11 14:49:23;;;;;;;1.83;0.57;;;;;;;;;;3615446;39;20125;-65
2021/05/11 14:51:49;;;;;;;2.83;0.65;;;;;;;;;;3617959;39;20366;-65
2021/05/11 14:54:14;;;;;;;1.52;0.65;;;;;;;;;;3617284;39;20054;-65
2021/05/11 14:56:40;;;;;;;1.80;0.73;;;;;;;;;;3616289;39;20039;-66
2021/05/11 14:59:10;;;;;;;1.45;0.60;;;;;;;;;;3614975;39;20062;-66
2021/05/11 15:01:35;;;;;;;1.38;0.80;;;;;;;;;;3618180;39;20525;-66
2021/05/11 15:04:01;;;;;;;2.30;0.98;;;;;;;;;;3617360;39;20051;-65
2021/05/11 15:06:27;;;;;;;2.28;0.80;;;;;;;;;;3616005;39;20038;-66
2021/05/11 15:08:53;;;;;;;2.33;1.10;;;;;;;;;;3616042;39;20041;-66
2021/05/11 15:11:19;;;;;;;1.10;0.50;;;;;;;;;;3618419;39;20043;-65
2021/05/11 15:13:46;;;;;;;2.38;0.90;;;;;;;;;;3616678;39;20075;-65
2021/05/11 15:16:14;;;;;;;1.65;0.82;;;;;;;;;;3616257;39;20035;-65
2021/05/11 15:18:40;;;;;;;2.75;1.10;;;;;;;;;;3616839;39;20031;-65
2021/05/11 15:21:05;;;;;;;2.60;1.25;;;;;;;;;;3615724;39;20031;-65
2021/05/11 15:23:31;;;;;;;3.25;1.38;;;;;;;;;;3616957;39;20027;-65
2021/05/11 15:25:56;;;;;;;4.40;1.10;;;;;;;;;;3616154;39;20278;-65
2021/05/11 15:28:22;;;;;;;2.85;1.40;;;;;;;;;;3617324;39;20390;-65
2021/05/11 15:30:47;;;;;;;2.70;1.38;;;;;;;;;;3620348;39;20518;-65
2021/05/11 15:33:13;;;;;;;2.83;1.30;;;;;;;;;;3608927;39;20030;-66
2021/05/11 15:35:38;;;;;;;2.10;1.23;;;;;;;;;;3617280;39;20066;-65
2021/05/11 15:38:07;;;;;;;2.17;1.17;;;;;;;;;;3614301;39;20023;-65
2021/05/11 15:40:37;;;;;;;2.50;1.30;;;;;;;;;;3617018;39;20277;-65
2021/05/11 15:43:04;;;;;;;3.72;1.23;;;;;;;;;;3616164;39;20030;-66
2021/05/11 15:45:30;;;;;;;2.30;1.10;;;;;;;;;;3616139;39;20458;-66
2021/05/11 15:47:56;;;;;;;2.45;1.00;;;;;;;;;;3617675;39;20031;-66
2021/05/11 15:50:24;;;;;;;2.47;0.95;;;;;;;;;;3617381;39;20605;-65
2021/05/11 15:52:50;;;;;;;3.15;1.23;;;;;;;;;;3616604;39;20027;-65
2021/05/11 15:55:16;;;;;;;2.35;1.13;;;;;;;;;;3616578;39;20058;-65
2021/05/11 15:57:42;;;;;;;2.33;0.90;;;;;;;;;;3607347;39;20314;-66
2021/05/11 16:00:09;;;;;;;3.40;1.27;;;;;;;;;;3617329;39;20055;-65
2021/05/11 16:02:35;;;;;;;2.55;1.17;;;;;;;;;;3616044;39;20047;-65
2021/05/11 16:05:00;;;;;;;1.42;0.80;;;;;;;;;;3616570;39;20062;-65
2021/05/11 16:07:26;;;;;;;1.77;1.00;;;;;;;;;;3617426;39;20058;-65
2021/05/11 16:09:52;;;;;;;2.47;1.08;;;;;;;;;;3607020;39;20055;-65
2021/05/11 16:12:18;;;;;;;2.72;1.20;;;;;;;;;;3616649;39;20051;-64
2021/05/11 16:14:43;;;;;;;2.08;0.93;;;;;;;;;;3616701;39;20047;-66
2021/05/11 16:17:08;;;;;;;2.88;1.02;;;;;;;;;;3616192;39;20031;-67
2021/05/11 16:19:34;;;;;;;3.58;1.30;;;;;;;;;;3616849;39;20349;-65
2021/05/11 16:21:59;;;;;;;2.13;1.10;;;;;;;;;;3616716;39;20047;-64
2021/05/11 16:24:25;;;;;;;2.53;1.30;;;;;;;;;;3616681;39;20127;-65
2021/05/11 16:26:50;;;;;;;1.85;1.00;;;;;;;;;;3616370;39;20047;-64
2021/05/11 16:29:15;;;;;;;4.32;1.25;;;;;;;;;;3613891;39;20092;-65
2021/05/11 16:31:41;;;;;;;2.70;1.13;;;;;;;;;;3615890;39;20083;-65
2021/05/11 16:34:08;;;;;;;3.17;1.52;;;;;;;;;;3615875;39;20115;-66
2021/05/11 16:36:34;;;;;;;6.60;1.15;;;;;;;;;;3616418;39;20288;-66
2021/05/11 16:38:59;;;;;;;1.90;1.08;;;;;;;;;;3616068;39;20039;-64
2021/05/11 16:41:25;;;;;;;1.80;0.80;;;;;;;;;;3615926;39;20024;-65
2021/05/11 16:43:52;;;;;;;2.65;1.20;;;;;;;;;;3616947;39;20538;-64
2021/05/11 16:46:17;;;;;;;2.53;1.00;;;;;;;;;;3616253;39;20067;-64
2021/05/11 16:48:43;;;;;;;2.70;1.40;;;;;;;;;;3615756;39;20390;-66
2021/05/11 16:51:08;;;;;;;3.10;1.55;;;;;;;;;;3616746;39;20042;-65
2021/05/11 16:53:34;;;;;;;3.40;1.80;;;;;;;;;;3616226;39;20439;-65
2021/05/11 16:56:00;;;;;;;2.60;1.30;;;;;;;;;;3615805;39;20043;-65
2021/05/11 16:58:25;;;;;;;1.95;1.08;;;;;;;;;;3616859;39;20062;-65
2021/05/11 17:00:50;;;;;;;3.13;1.20;;;;;;;;;;3616692;39;20024;-65
2021/05/11 17:03:17;;;;;;;5.82;1.15;;;;;;;;;;3616320;39;20265;-64
2021/05/11 17:05:42;;;;;;;2.67;1.30;;;;;;;;;;3613586;39;20024;-65
2021/05/11 17:08:11;;;;;;;3.47;1.50;;;;;;;;;;3606492;39;20062;-65
2021/05/11 17:10:37;;;;;;;2.28;1.27;;;;;;;;;;3606623;39;20127;-66
2021/05/11 17:13:04;;;;;;;4.00;1.67;;;;;;;;;;3615922;39;20045;-66
2021/05/11 17:15:31;;;;;;;1.67;0.95;;;;;;;;;;3616467;39;20039;-66
2021/05/11 17:17:57;;;;;;;2.83;1.15;;;;;;;;;;3616562;39;20038;-68
2021/05/11 17:20:26;;;;;;;2.35;1.17;;;;;;;;;;3615853;39;20028;-67
2021/05/11 17:22:52;;;;;;;2.67;1.23;;;;;;;;;;3614549;39;20042;-67
2021/05/11 17:25:19;;;;;;;2.92;1.52;;;;;;;;;;3616016;39;20062;-66
2021/05/11 17:27:45;;;;;;;3.65;1.40;;;;;;;;;;3605423;39;20024;-66
2021/05/11 17:30:12;;;;;;;2.83;1.27;;;;;;;;;;3604611;39;20062;-67
2021/05/11 17:32:38;;;;;;;1.90;1.17;;;;;;;;;;3613963;39;20078;-66
2021/05/11 17:35:05;;;;;;;3.35;1.40;;;;;;;;;;3615645;39;20340;-70
2021/05/11 17:37:31;;;;;;;2.53;1.30;;;;;;;;;;3616274;39;20043;-68
2021/05/11 17:39:56;;;;;;;3.45;1.40;;;;;;;;;;3616477;39;20370;-66
2021/05/11 17:42:22;;;;;;;2.38;1.35;;;;;;;;;;3613844;39;20030;-66
2021/05/11 17:44:48;;;;;;;3.30;1.50;;;;;;;;;;3607767;39;20031;-70
2021/05/11 17:47:14;;;;;;;3.17;1.65;;;;;;;;;;3617540;39;20050;-67
2021/05/11 17:49:41;;;;;;;3.15;1.50;;;;;;;;;;3617130;39;20124;-68
2021/05/11 17:52:06;;;;;;;3.40;1.75;;;;;;;;;;3608131;39;20496;-68
2021/05/11 17:54:32;;;;;;;2.55;1.58;;;;;;;;;;3617793;39;20043;-68
2021/05/11 17:56:58;;;;;;;2.47;1.30;;;;;;;;;;3608815;39;20031;-71
2021/05/11 17:59:23;;;;;;;3.00;1.60;;;;;;;;;;3617467;39;20043;-67
2021/05/11 18:01:48;;;;;;;2.63;1.33;;;;;;;;;;3618039;39;20050;-65
2021/05/11 18:04:14;;;;;;;2.78;1.50;;;;;;;;;;3608456;39;20043;-67
2021/05/11 18:06:39;;;;;;;2.83;1.70;;;;;;;;;;3617737;39;20058;-69
2021/05/11 18:09:05;;;;;;;2.90;1.70;;;;;;;;;;3616651;39;20367;-67
2021/05/11 18:11:31;;;;;;;5.22;1.60;;;;;;;;;;3617767;39;20119;-68
2021/05/11 18:13:56;;;;;;;3.00;1.55;;;;;;;;;;3608336;39;20131;-69
2021/05/11 18:16:22;;;;;;;4.18;2.15;;;;;;;;;;3608377;39;20293;-67
2021/05/11 18:18:47;;;;;;;3.58;2.20;;;;;;;;;;3617401;39;20034;-67
2021/05/11 18:21:13;;;;;;;3.70;2.00;;;;;;;;;;3618025;39;20045;-66
2021/05/11 18:23:38;;;;;;;4.15;2.03;;;;;;;;;;3617750;39;20067;-66
2021/05/11 18:26:04;;;;;;;4.05;2.20;;;;;;;;;;3617393;39;20030;-67
2021/05/11 18:28:30;;;;;;;3.88;2.50;;;;;;;;;;3607877;39;20042;-67
2021/05/11 18:30:57;;;;;;;3.55;2.40;;;;;;;;;;3617766;39;20044;-66
2021/05/11 18:33:22;;;;;;;3.97;2.40;;;;;;;;;;3607352;39;20042;-66
2021/05/11 18:35:48;;;;;;;3.92;2.10;;;;;;;;;;3616752;39;20046;-67
2021/05/11 18:38:20;;;;;;;4.03;2.40;;;;;;;;;;3608056;39;20051;-68
2021/05/11 18:40:46;;;;;;;4.32;2.70;;;;;;;;;;3606450;39;20031;-68
2021/05/11 18:43:12;;;;;;;5.05;2.70;;;;;;;;;;3607468;39;20050;-66
2021/05/11 18:45:37;;;;;;;5.07;2.95;;;;;;;;;;3616727;39;21450;-68
2021/05/11 18:48:03;;;;;;;5.68;2.60;;;;;;;;;;3617847;39;20035;-67
2021/05/11 18:50:31;;;;;;;5.18;3.25;;;;;;;;;;3617360;39;20035;-67
2021/05/11 18:52:57;;;;;;;7.85;3.40;;;;;;;;;;3616232;39;20035;-66
2021/05/11 18:55:24;;;;;;;4.18;3.03;;;;;;;;;;3616056;39;20043;-66
2021/05/11 18:57:50;;;;;;;5.85;3.40;;;;;;;;;;3619002;39;20051;-65
2021/05/11 19:00:17;;;;;;;6.43;3.83;;;;;;;;;;3616885;39;20047;-64
2021/05/11 19:02:43;;;;;;;7.30;4.05;;;;;;;;;;3616013;39;20287;-70
2021/05/11 19:05:11;;;;;;;4.78;3.88;;;;;;;;;;3615341;39;20540;-66
2021/05/11 19:07:37;;;;;;;5.85;4.30;;;;;;;;;;3616140;39;20108;-65
2021/05/11 19:10:05;;;;;;;5.38;4.10;;;;;;;;;;3608085;39;20031;-63
2021/05/11 19:12:31;;;;;;;7.05;5.50;;;;;;;;;;3619688;39;20028;-66